Ivugivik, Canada
Current Conditions -  °F | °C
As of 11:00 AM on Friday 28 Nov 2014 (Local Time) from CYTE Reporting Station
Light Snow Light Snow  
Wind Chill: -20°   Ceiling: 2000
Heat Index: -6°   Visibility: 4mi
Dew Point: -9°   Wind: 7mph
Humidity: 84%   Direction: 270°W
Pressure: 29.48"   Gusts: NA
Location:  62.42°N, 77.9°W
Report Text: CYTE 281500Z 27006KT 4SM -SN BR BKN020 M21/M23 A2948 RMK SC6 SLP988
Loading
Personal Weather Stations






























Interactive Weather Map New forecast layout! Learn more

10-Day Weather Forecast

Advertisements
Track Severe Weather on mobile